Clear Sky Current Weather (METAR) For Amsterdam Schiphol Airport

All times on the weather descriptions are local

Observed at 13:25 - (9 mins ago)

Clear Sky

13°C

Clear Sky
Clouds:
Wind: 070° at 12 knots, varying from 040° to 100
Visibility: Greater than 10km
QNH: 1029
Dew Point: 2°C
Runways with a headwind: Runway 06, Runway 09, Runways 36L/C/R

Sunrise Today: 06:34
Sunset Today: 20:46

Forecast Weather (TAF) For Amsterdam Schiphol Airport

Issued at 02:00 - (12 days ago)


Runways with a headwind: Unable to determine, wind is clam

Forecast valid until 02:00 on Thursday

METAR/TAF RAW METAR / TAF

EHAM 181125Z 07012KT 040V100 CAVOK 13/02 Q1029 NOSIG

Weather Widget

Put weather from any of our airports on your website with our weather widget.

Find Another Search

Airport Search


Please Wait Please Wait - Loading
Close
Close

Login

Username:

Password:

Remember Me:

Remember me on this computer

Forgotten your password? Get a reset password sent to your registered e-mail address

Close

User Private Message

Subject:

Message: